ROAH(METAR)
05/24 15:00
METAR ROAH 240600Z 08006KT 020V150 CAVOK 29/08 Q1014 RMK A2996=
戻る
トップページへ戻る
IMOC Co,.Ltd.